createdAt,value
2022-12-11T00:02:04.600Z,3.98
2022-12-11T00:04:33.442Z,3.95
2022-12-11T00:07:01.482Z,3.88
2022-12-11T00:09:29.804Z,3.88
2022-12-11T00:11:58.195Z,3.90
2022-12-11T00:14:26.246Z,3.82
2022-12-11T00:16:54.465Z,3.73
2022-12-11T00:19:23.134Z,3.78
2022-12-11T00:21:51.529Z,3.70
2022-12-11T00:24:19.862Z,3.78
2022-12-11T00:26:48.371Z,3.83
2022-12-11T00:29:16.507Z,3.67
2022-12-11T00:31:44.734Z,3.80
2022-12-11T00:34:13.196Z,3.66
2022-12-11T00:36:41.355Z,3.70
2022-12-11T00:39:09.579Z,3.65
2022-12-11T00:41:37.906Z,3.69
2022-12-11T00:44:06.080Z,3.66
2022-12-11T00:46:34.332Z,3.60
2022-12-11T00:49:02.634Z,3.53
2022-12-11T00:51:30.722Z,3.40
2022-12-11T00:53:58.912Z,3.54
2022-12-11T00:56:27.363Z,3.39
2022-12-11T00:58:56.467Z,3.36
2022-12-11T01:01:25.644Z,3.34
2022-12-11T01:03:54.399Z,3.33
2022-12-11T01:06:24.890Z,3.27
2022-12-11T01:09:13.624Z,3.29
2022-12-11T01:11:43.054Z,3.14
2022-12-11T01:14:12.164Z,3.25
2022-12-11T01:16:40.458Z,3.12
2022-12-11T01:19:09.030Z,3.12
2022-12-11T01:21:37.414Z,2.98
2022-12-11T01:24:05.757Z,3.06
2022-12-11T01:26:33.837Z,3.03
2022-12-11T01:29:02.286Z,2.94
2022-12-11T01:31:30.379Z,2.87
2022-12-11T01:33:58.473Z,2.93
2022-12-11T01:36:26.902Z,2.79
2022-12-11T01:38:55.048Z,2.87
2022-12-11T01:41:23.134Z,2.80
2022-12-11T01:44:03.335Z,2.67
2022-12-11T01:46:34.261Z,2.77
2022-12-11T01:49:07.475Z,2.69
2022-12-11T01:51:41.719Z,2.54
2022-12-11T01:54:14.163Z,2.51
2022-12-11T01:56:45.118Z,2.42
2022-12-11T01:59:17.814Z,2.45
2022-12-11T02:01:51.375Z,2.29
2022-12-11T02:04:20.203Z,2.30
2022-12-11T02:06:50.665Z,2.24
2022-12-11T02:09:26.931Z,2.18
2022-12-11T02:12:07.438Z,2.12
2022-12-11T02:14:44.376Z,2.17
2022-12-11T02:17:22.825Z,2.13
2022-12-11T02:20:19.030Z,2.03
2022-12-11T02:23:19.230Z,1.99
2022-12-11T02:25:59.052Z,1.90
2022-12-11T02:28:45.832Z,1.78
2022-12-11T02:31:23.599Z,1.83
2022-12-11T02:34:03.294Z,1.74
2022-12-11T02:36:39.763Z,1.81
2022-12-11T02:39:13.026Z,1.79
2022-12-11T02:41:46.789Z,1.82
2022-12-11T02:44:17.698Z,1.85
2022-12-11T02:46:46.265Z,1.81
2022-12-11T02:49:16.526Z,1.80
2022-12-11T02:51:45.046Z,1.74
2022-12-11T02:54:25.596Z,1.78
2022-12-11T02:57:01.771Z,1.66
2022-12-11T02:59:41.579Z,1.73
2022-12-11T03:02:12.508Z,1.69
2022-12-11T03:04:41.856Z,1.60
2022-12-11T03:07:15.911Z,1.66
2022-12-11T03:09:46.696Z,1.65
2022-12-11T03:12:19.513Z,1.61
2022-12-11T03:14:48.946Z,1.62
2022-12-11T03:17:23.807Z,1.69
2022-12-11T03:20:37.322Z,1.74
2022-12-11T03:23:19.202Z,1.80
2022-12-11T03:25:55.436Z,1.72
2022-12-11T03:28:26.302Z,1.81
2022-12-11T03:30:56.485Z,1.60
2022-12-11T03:33:30.750Z,1.62
2022-12-11T03:36:05.287Z,1.68
2022-12-11T03:38:45.655Z,1.59
2022-12-11T03:41:17.109Z,1.68
2022-12-11T03:43:46.586Z,1.51
2022-12-11T03:46:16.819Z,1.49
2022-12-11T03:48:47.662Z,1.42
2022-12-11T03:51:17.207Z,1.53
2022-12-11T03:53:47.631Z,1.39
2022-12-11T03:56:18.216Z,1.50
2022-12-11T03:58:52.984Z,1.49
2022-12-11T04:01:21.521Z,1.45
2022-12-11T04:03:50.204Z,1.27
2022-12-11T04:06:18.326Z,1.42
2022-12-11T04:08:46.283Z,1.42
2022-12-11T04:11:33.546Z,1.33
2022-12-11T04:14:32.009Z,1.31
2022-12-11T04:17:01.385Z,1.35
2022-12-11T04:19:48.039Z,1.29
2022-12-11T04:22:37.187Z,1.34
2022-12-11T04:25:07.788Z,1.35
2022-12-11T04:27:51.310Z,1.31
2022-12-11T04:30:22.858Z,1.38
2022-12-11T04:32:53.150Z,1.50
2022-12-11T04:35:21.735Z,1.30
2022-12-11T04:37:50.159Z,1.19
2022-12-11T04:40:19.885Z,1.26
2022-12-11T04:42:48.308Z,1.23
2022-12-11T04:45:16.670Z,1.30
2022-12-11T04:47:45.088Z,1.28
2022-12-11T04:50:15.029Z,1.18
2022-12-11T04:52:43.813Z,1.18
2022-12-11T04:55:13.174Z,1.16
2022-12-11T04:57:41.479Z,1.07
2022-12-11T05:00:11.537Z,1.07
2022-12-11T05:02:41.586Z,1.09
2022-12-11T05:05:11.066Z,1.20
2022-12-11T05:07:39.823Z,1.16
2022-12-11T05:10:08.761Z,1.12
2022-12-11T05:12:37.074Z,1.22
2022-12-11T05:15:06.299Z,1.21
2022-12-11T05:17:34.561Z,1.04
2022-12-11T05:20:02.929Z,1.11
2022-12-11T05:22:31.951Z,1.15
2022-12-11T05:25:00.092Z,0.99
2022-12-11T05:27:28.159Z,1.06
2022-12-11T05:29:59.597Z,1.00
2022-12-11T05:32:28.434Z,1.01
2022-12-11T05:34:56.815Z,1.08
2022-12-11T05:37:24.797Z,1.01
2022-12-11T05:39:52.964Z,1.00
2022-12-11T05:42:25.550Z,1.08
2022-12-11T05:44:56.939Z,1.16
2022-12-11T05:47:25.619Z,1.14
2022-12-11T05:49:53.748Z,1.06
2022-12-11T05:52:21.883Z,1.00
2022-12-11T05:54:50.514Z,1.04
2022-12-11T05:57:18.609Z,0.93
2022-12-11T05:59:46.697Z,0.97
2022-12-11T06:02:15.456Z,1.08
2022-12-11T06:04:43.822Z,1.08
2022-12-11T06:07:12.015Z,1.02
2022-12-11T06:09:40.030Z,1.01
2022-12-11T06:12:08.448Z,1.04
2022-12-11T06:14:36.486Z,1.03
2022-12-11T06:17:04.575Z,1.08
2022-12-11T06:19:36.733Z,0.95
2022-12-11T06:22:05.404Z,0.93
2022-12-11T06:24:33.982Z,0.97
2022-12-11T06:27:02.267Z,0.99
2022-12-11T06:29:30.659Z,1.00
2022-12-11T06:31:59.244Z,0.86
2022-12-11T06:34:27.540Z,0.86
2022-12-11T06:36:55.699Z,0.81
2022-12-11T06:39:24.112Z,0.75
2022-12-11T06:41:52.208Z,0.70
2022-12-11T06:44:20.302Z,0.71
2022-12-11T06:46:48.599Z,0.65
2022-12-11T06:49:16.677Z,0.70
2022-12-11T06:51:44.813Z,0.67
2022-12-11T06:54:13.755Z,0.59
2022-12-11T06:56:41.914Z,0.56
2022-12-11T06:59:13.330Z,0.70
2022-12-11T07:01:41.744Z,0.67
2022-12-11T07:04:10.299Z,0.64
2022-12-11T07:06:38.435Z,0.54
2022-12-11T07:09:07.279Z,0.54
2022-12-11T07:11:35.457Z,0.51
2022-12-11T07:14:03.817Z,0.55
2022-12-11T07:16:32.300Z,0.57
2022-12-11T07:19:00.858Z,0.58
2022-12-11T07:21:29.259Z,0.58
2022-12-11T07:23:57.779Z,0.60
2022-12-11T07:26:25.902Z,0.64
2022-12-11T07:28:57.254Z,0.66
2022-12-11T07:31:27.312Z,0.72
2022-12-11T07:34:00.606Z,0.81
2022-12-11T07:36:29.776Z,0.80
2022-12-11T07:38:59.582Z,0.83
2022-12-11T07:41:28.808Z,0.95
2022-12-11T07:43:59.995Z,0.90
2022-12-11T07:46:30.659Z,0.86
2022-12-11T07:49:00.964Z,0.88
2022-12-11T07:51:35.556Z,0.95
2022-12-11T07:54:16.607Z,1.04
2022-12-11T07:56:51.134Z,0.95
2022-12-11T07:59:21.734Z,0.97
2022-12-11T08:01:49.886Z,1.14
2022-12-11T08:04:18.191Z,1.13
2022-12-11T08:06:46.456Z,1.02
2022-12-11T08:09:20.715Z,1.11
2022-12-11T08:11:51.764Z,1.23
2022-12-11T08:14:20.492Z,1.17
2022-12-11T08:16:49.193Z,1.12
2022-12-11T08:19:18.090Z,1.19
2022-12-11T08:21:46.861Z,1.23
2022-12-11T08:24:20.130Z,1.16
2022-12-11T08:26:48.639Z,1.16
2022-12-11T08:29:16.733Z,1.17
2022-12-11T08:31:44.814Z,1.09
2022-12-11T08:34:14.198Z,1.19
2022-12-11T08:36:42.414Z,1.21
2022-12-11T08:39:10.384Z,1.25
2022-12-11T08:41:38.875Z,1.15
2022-12-11T08:44:16.339Z,1.14
2022-12-11T08:46:46.177Z,1.23
2022-12-11T08:49:14.485Z,1.22
2022-12-11T08:51:42.564Z,1.23
2022-12-11T08:54:11.754Z,1.16
2022-12-11T08:56:39.843Z,1.35
2022-12-11T08:59:07.981Z,1.26
2022-12-11T09:01:36.629Z,1.13
2022-12-11T09:04:04.952Z,1.19
2022-12-11T09:06:33.383Z,1.34
2022-12-11T09:09:02.419Z,1.19
2022-12-11T09:11:33.371Z,1.19
2022-12-11T09:14:07.334Z,1.20
2022-12-11T09:16:40.249Z,1.21
2022-12-11T09:19:17.695Z,1.35
2022-12-11T09:21:46.215Z,1.21
2022-12-11T09:24:15.142Z,1.23
2022-12-11T09:26:43.150Z,1.26
2022-12-11T09:29:12.420Z,1.16
2022-12-11T09:31:41.900Z,1.23
2022-12-11T09:34:13.045Z,1.38
2022-12-11T09:36:42.401Z,1.27
2022-12-11T09:39:12.341Z,1.20
2022-12-11T09:42:04.874Z,1.34
2022-12-11T09:44:42.302Z,1.35
2022-12-11T09:47:20.483Z,1.39
2022-12-11T09:49:56.507Z,1.33
2022-12-11T09:52:54.119Z,1.35
2022-12-11T09:55:25.409Z,1.32
2022-12-11T09:58:05.361Z,1.28
2022-12-11T10:00:43.643Z,1.33
2022-12-11T10:03:22.907Z,1.28
2022-12-11T10:06:04.881Z,1.17
2022-12-11T10:08:41.580Z,1.23
2022-12-11T10:11:18.755Z,1.31
2022-12-11T10:14:22.404Z,1.34
2022-12-11T10:17:00.445Z,1.38
2022-12-11T10:19:30.901Z,1.37
2022-12-11T10:22:01.368Z,1.43
2022-12-11T10:27:38.228Z,1.50
2022-12-11T10:30:21.223Z,1.45
2022-12-11T10:32:53.776Z,1.38
2022-12-11T10:35:48.328Z,1.41
2022-12-11T10:38:30.449Z,1.44
2022-12-11T10:41:02.547Z,1.26
2022-12-11T10:43:56.292Z,1.42
2022-12-11T10:46:28.154Z,1.33
2022-12-11T10:48:59.351Z,1.32
2022-12-11T10:51:30.824Z,1.25
2022-12-11T10:54:24.828Z,1.41
2022-12-11T10:56:54.374Z,1.39
2022-12-11T10:59:45.192Z,1.27
2022-12-11T11:02:27.081Z,1.17
2022-12-11T11:04:57.386Z,1.27
2022-12-11T11:07:31.361Z,1.22
2022-12-11T11:10:11.803Z,1.32
2022-12-11T11:12:48.995Z,1.26
2022-12-11T11:15:25.847Z,1.30
2022-12-11T11:18:09.598Z,1.42
2022-12-11T11:20:47.399Z,1.53
2022-12-11T11:23:18.703Z,1.37
2022-12-11T11:26:08.191Z,1.47
2022-12-11T11:28:40.780Z,1.44
2022-12-11T11:31:11.886Z,1.51
2022-12-11T11:34:08.096Z,1.63
2022-12-11T11:36:40.325Z,1.59
2022-12-11T11:39:32.301Z,1.66
2022-12-11T11:42:13.724Z,1.66
2022-12-11T11:44:58.456Z,1.65
2022-12-11T11:47:32.759Z,1.84
2022-12-11T11:50:12.306Z,1.73
2022-12-11T11:52:47.898Z,1.75
2022-12-11T11:55:31.619Z,1.67
2022-12-11T11:58:15.809Z,1.78
2022-12-11T12:00:44.345Z,1.80
2022-12-11T12:03:19.855Z,1.69
2022-12-11T12:06:06.426Z,1.82
2022-12-11T12:08:49.526Z,1.68
2022-12-11T12:11:45.854Z,1.80
2022-12-11T12:14:51.947Z,1.70
2022-12-11T12:17:36.171Z,1.57
2022-12-11T12:20:32.431Z,1.69
2022-12-11T12:23:06.575Z,1.70
2022-12-11T12:26:00.049Z,1.72
2022-12-11T12:28:33.955Z,1.71
2022-12-11T12:31:05.399Z,1.70
2022-12-11T12:33:38.140Z,1.79
2022-12-11T12:36:19.413Z,1.97
2022-12-11T12:39:01.247Z,1.74
2022-12-11T12:41:46.954Z,1.74
2022-12-11T12:44:15.568Z,1.75
2022-12-11T12:47:09.343Z,1.77
2022-12-11T12:49:43.317Z,1.74
2022-12-11T12:52:29.536Z,1.68
2022-12-11T12:55:22.801Z,1.67
2022-12-11T12:58:00.550Z,1.65
2022-12-11T13:00:41.683Z,1.82
2022-12-11T13:03:20.252Z,1.73
2022-12-11T13:06:05.824Z,1.67
2022-12-11T13:08:47.349Z,1.58
2022-12-11T13:11:19.055Z,1.70
2022-12-11T13:14:01.395Z,1.68
2022-12-11T13:16:42.253Z,1.63
2022-12-11T13:19:25.671Z,1.85
2022-12-11T13:22:12.790Z,1.65
2022-12-11T13:24:53.584Z,1.62
2022-12-11T13:27:49.293Z,1.59
2022-12-11T13:30:25.707Z,1.81
2022-12-11T13:33:32.456Z,1.77
2022-12-11T13:36:30.303Z,1.72
2022-12-11T13:39:18.956Z,1.58
2022-12-11T13:41:53.781Z,1.69
2022-12-11T13:44:27.382Z,1.61
2022-12-11T13:47:00.053Z,1.77
2022-12-11T13:49:34.015Z,1.68
2022-12-11T13:52:03.894Z,1.65
2022-12-11T13:54:34.850Z,1.66
2022-12-11T13:57:16.730Z,1.64
2022-12-11T13:59:53.338Z,1.53
2022-12-11T14:02:28.627Z,1.75
2022-12-11T14:05:07.019Z,1.55
2022-12-11T14:07:52.687Z,1.71
2022-12-11T14:10:24.754Z,1.48
2022-12-11T14:13:04.232Z,1.56
2022-12-11T14:15:35.543Z,1.43
2022-12-11T14:18:05.485Z,1.42
2022-12-11T14:20:34.829Z,1.35
2022-12-11T14:23:25.487Z,1.42
2022-12-11T14:26:02.602Z,1.55
2022-12-11T14:28:38.523Z,1.37
2022-12-11T14:31:07.906Z,1.46
2022-12-11T14:33:41.011Z,1.24
2022-12-11T14:36:10.184Z,1.36
2022-12-11T14:38:46.519Z,1.40
2022-12-11T14:41:25.127Z,1.28
2022-12-11T14:44:00.442Z,1.29
2022-12-11T14:46:58.494Z,1.21
2022-12-11T14:49:29.771Z,1.28
2022-12-11T14:51:59.645Z,1.29
2022-12-11T14:54:31.555Z,1.46
2022-12-11T14:57:02.119Z,1.36
2022-12-11T14:59:36.089Z,1.25
2022-12-11T15:02:38.624Z,1.21
2022-12-11T15:05:19.585Z,1.21
2022-12-11T15:08:02.943Z,1.13
2022-12-11T15:10:36.826Z,1.18
2022-12-11T15:13:06.689Z,1.12
2022-12-11T15:15:45.571Z,1.09
2022-12-11T15:18:40.602Z,1.08
2022-12-11T15:21:12.640Z,0.97
2022-12-11T15:23:54.187Z,0.97
2022-12-11T15:26:34.824Z,0.97
2022-12-11T15:29:25.419Z,1.01
2022-12-11T15:32:02.438Z,0.99
2022-12-11T15:34:44.525Z,0.90
2022-12-11T15:37:32.729Z,0.75
2022-12-11T15:40:05.349Z,0.91
2022-12-11T15:42:40.097Z,0.89
2022-12-11T15:45:15.420Z,0.85
2022-12-11T15:47:44.629Z,0.80
2022-12-11T15:50:24.863Z,0.78
2022-12-11T15:52:55.044Z,0.58
2022-12-11T15:55:27.280Z,0.57
2022-12-11T15:57:59.952Z,0.68
2022-12-11T16:00:28.671Z,0.77
2022-12-11T16:02:57.985Z,0.57
2022-12-11T16:05:26.848Z,0.53
2022-12-11T16:07:59.897Z,0.62
2022-12-11T16:10:30.693Z,0.75
2022-12-11T16:13:02.731Z,0.75
2022-12-11T16:15:31.401Z,0.62
2022-12-11T16:18:08.688Z,0.78
2022-12-11T16:20:37.949Z,0.64
2022-12-11T16:23:06.813Z,0.68
2022-12-11T16:25:37.826Z,0.53
2022-12-11T16:28:07.085Z,0.57
2022-12-11T16:30:37.185Z,0.49
2022-12-11T16:33:12.015Z,0.49
2022-12-11T16:35:53.001Z,0.46
2022-12-11T16:38:21.330Z,0.42
2022-12-11T16:40:49.733Z,0.42
2022-12-11T16:43:18.448Z,0.48
2022-12-11T16:45:46.877Z,0.50
2022-12-11T16:48:14.970Z,0.27
2022-12-11T16:50:43.293Z,0.48
2022-12-11T16:53:14.570Z,0.22
2022-12-11T16:55:42.722Z,0.32
2022-12-11T16:58:15.886Z,0.50
2022-12-11T17:00:44.884Z,0.42
2022-12-11T17:03:13.728Z,0.41
2022-12-11T17:05:43.563Z,0.52
2022-12-11T17:08:13.815Z,0.32
2022-12-11T17:10:43.428Z,0.39
2022-12-11T17:13:11.728Z,0.23
2022-12-11T17:15:42.418Z,0.24
2022-12-11T17:18:13.205Z,0.43
2022-12-11T17:20:42.703Z,0.46
2022-12-11T17:23:13.294Z,0.43
2022-12-11T17:25:42.547Z,0.21
2022-12-11T17:28:12.166Z,0.24
2022-12-11T17:30:46.286Z,0.32
2022-12-11T17:33:16.622Z,0.17
2022-12-11T17:35:46.197Z,0.29
2022-12-11T17:38:15.524Z,0.39
2022-12-11T17:40:44.577Z,0.35
2022-12-11T17:43:13.066Z,0.40
2022-12-11T17:45:48.985Z,0.33
2022-12-11T17:48:17.037Z,0.40
2022-12-11T17:50:47.242Z,0.22
2022-12-11T17:53:16.875Z,0.22
2022-12-11T17:55:46.287Z,0.11
2022-12-11T17:58:23.976Z,0.12
2022-12-11T18:00:55.848Z,0.22
2022-12-11T18:03:26.900Z,0.29
2022-12-11T18:05:56.781Z,0.25
2022-12-11T18:08:29.814Z,0.21
2022-12-11T18:11:21.627Z,0.22
2022-12-11T18:13:51.854Z,0.27
2022-12-11T18:16:31.149Z,0.13
2022-12-11T18:19:00.081Z,0.22
2022-12-11T18:21:31.971Z,0.19
2022-12-11T18:24:01.826Z,0.25
2022-12-11T18:26:30.187Z,0.12
2022-12-11T18:28:58.845Z,0.03
2022-12-11T18:31:27.553Z,-0.06
2022-12-11T18:33:56.223Z,-0.12
2022-12-11T18:36:24.554Z,-0.19
2022-12-11T18:38:53.626Z,0.11
2022-12-11T18:41:21.935Z,0.06
2022-12-11T18:43:54.795Z,-0.02
2022-12-11T18:46:24.155Z,0.03
2022-12-11T18:48:52.355Z,-0.05
2022-12-11T18:51:23.988Z,-0.04
2022-12-11T18:53:52.770Z,-0.06
2022-12-11T18:56:22.628Z,-0.10
2022-12-11T18:58:52.452Z,0.05
2022-12-11T19:01:24.793Z,0.11
2022-12-11T19:03:58.863Z,-0.17
2022-12-11T19:06:32.583Z,-0.05
2022-12-11T19:09:02.457Z,-0.11
2022-12-11T19:11:36.157Z,-0.21
2022-12-11T19:14:05.606Z,-0.18
2022-12-11T19:16:37.689Z,-0.09
2022-12-11T19:19:12.170Z,-0.09
2022-12-11T19:21:41.522Z,0.06
2022-12-11T19:24:13.639Z,-0.10
2022-12-11T19:26:43.820Z,0.07
2022-12-11T19:29:25.282Z,0.04
2022-12-11T19:31:55.732Z,-0.18
2022-12-11T19:34:25.689Z,-0.22
2022-12-11T19:36:56.748Z,-0.13
2022-12-11T19:39:25.176Z,-0.03
2022-12-11T19:41:53.991Z,-0.16
2022-12-11T19:44:22.430Z,0.01
2022-12-11T19:46:51.010Z,-0.16
2022-12-11T19:49:19.747Z,-0.15
2022-12-11T19:51:48.445Z,-0.18
2022-12-11T19:54:18.363Z,-0.04
2022-12-11T19:56:47.053Z,-0.18
2022-12-11T19:59:17.680Z,-0.32
2022-12-11T20:01:48.331Z,-0.16
2022-12-11T20:04:17.798Z,-0.22
2022-12-11T20:06:47.692Z,-0.23
2022-12-11T20:09:17.234Z,-0.30
2022-12-11T20:11:47.837Z,-0.18
2022-12-11T20:14:25.339Z,-0.12
2022-12-11T20:17:13.932Z,-0.15
2022-12-11T20:19:44.341Z,-0.05
2022-12-11T20:22:12.748Z,-0.04
2022-12-11T20:24:41.593Z,-0.04
2022-12-11T20:27:10.354Z,-0.21
2022-12-11T20:29:40.442Z,-0.28
2022-12-11T20:32:11.468Z,-0.14
2022-12-11T20:34:40.441Z,-0.31
2022-12-11T20:37:08.695Z,-0.23
2022-12-11T20:39:37.373Z,-0.50
2022-12-11T20:42:09.012Z,-0.28
2022-12-11T20:44:37.366Z,-0.53
2022-12-11T20:47:07.010Z,-0.48
2022-12-11T20:49:36.241Z,-0.60
2022-12-11T20:52:04.609Z,-0.52
2022-12-11T20:54:33.580Z,-0.57
2022-12-11T20:57:01.831Z,-0.58
2022-12-11T20:59:30.056Z,-0.52
2022-12-11T21:01:58.879Z,-0.47
2022-12-11T21:04:28.714Z,-0.47
2022-12-11T21:06:56.753Z,-0.62
2022-12-11T21:09:26.827Z,-0.53
2022-12-11T21:11:58.578Z,-0.71
2022-12-11T21:14:27.920Z,-0.58
2022-12-11T21:16:56.392Z,-0.67
2022-12-11T21:19:24.551Z,-0.46
2022-12-11T21:21:53.032Z,-0.58
2022-12-11T21:24:23.834Z,-0.72
2022-12-11T21:26:55.215Z,-0.58
2022-12-11T21:29:26.204Z,-0.78
2022-12-11T21:31:54.616Z,-0.56
2022-12-11T21:34:25.521Z,-0.56
2022-12-11T21:36:56.896Z,-0.74
2022-12-11T21:39:26.699Z,-0.52
2022-12-11T21:41:55.483Z,-0.74
2022-12-11T21:47:12.211Z,-0.65
2022-12-11T21:49:40.436Z,-0.82
2022-12-11T21:52:09.458Z,-0.84
2022-12-11T21:54:39.021Z,-0.69
2022-12-11T21:57:07.328Z,-0.94
2022-12-11T21:59:35.842Z,-0.86
2022-12-11T22:02:04.504Z,-0.73
2022-12-11T22:04:33.133Z,-0.84
2022-12-11T22:07:01.397Z,-0.91
2022-12-11T22:09:30.194Z,-0.95
2022-12-11T22:11:58.952Z,-0.77
2022-12-11T22:14:27.198Z,-0.80
2022-12-11T22:16:55.248Z,-0.90
2022-12-11T22:19:26.650Z,-0.95
2022-12-11T22:22:01.250Z,-0.91
2022-12-11T22:24:29.590Z,-0.92
2022-12-11T22:26:57.765Z,-1.24
2022-12-11T22:29:26.077Z,-1.18
2022-12-11T22:31:55.179Z,-1.23
2022-12-11T22:34:23.346Z,-1.11
2022-12-11T22:36:51.432Z,-1.20
2022-12-11T22:39:20.172Z,-1.17
2022-12-11T22:41:48.499Z,-1.36
2022-12-11T22:44:19.877Z,-1.33
2022-12-11T22:46:50.281Z,-1.21
2022-12-11T22:49:20.364Z,-1.31
2022-12-11T22:51:49.359Z,-1.34
2022-12-11T22:54:17.746Z,-1.28
2022-12-11T22:56:45.986Z,-1.28
2022-12-11T22:59:15.047Z,-1.22
2022-12-11T23:01:43.317Z,-1.19
2022-12-11T23:04:11.732Z,-1.27
2022-12-11T23:06:40.371Z,-1.38
2022-12-11T23:09:08.773Z,-1.31
2022-12-11T23:11:37.896Z,-1.44
2022-12-11T23:14:08.532Z,-1.51
2022-12-11T23:16:36.680Z,-1.46
2022-12-11T23:19:05.103Z,-1.66
2022-12-11T23:21:33.462Z,-1.64
2022-12-11T23:24:02.129Z,-1.71
2022-12-11T23:26:30.714Z,-1.59
2022-12-11T23:28:59.877Z,-1.64
2022-12-11T23:31:28.554Z,-1.45
2022-12-11T23:33:57.692Z,-1.51
2022-12-11T23:36:27.507Z,-1.55
2022-12-11T23:38:55.653Z,-1.66
2022-12-11T23:41:24.321Z,-1.65
2022-12-11T23:43:52.793Z,-1.66
2022-12-11T23:46:22.836Z,-1.50
2022-12-11T23:48:52.572Z,-1.43
2022-12-11T23:51:23.230Z,-1.61
2022-12-11T23:53:52.106Z,-1.47
2022-12-11T23:56:29.132Z,-1.71
2022-12-11T23:58:57.966Z,-1.69
